Time;durP1;ratioP1;P1;durP2;ratioP2;P2;SDS_P1;SDS_P2;PMS_P1;PMS_P2;Temp;Humidity;BMP_temperature;BMP_pressure;BME280_temperature;BME280_humidity;BME280_pressure;Samples;Min_cycle;Max_cycle;Signal;HPM_P1;HPM_P2
2023/05/18 00:01:39;;;;;;;4.15;0.10;;;6.30;99.90;;;;;;5055606;28;20104;-77
2023/05/18 00:04:05;;;;;;;1.67;0.22;;;6.20;99.90;;;;;;5055552;28;20538;-77
2023/05/18 00:06:31;;;;;;;3.00;0.08;;;6.10;99.90;;;;;;5038042;28;20017;-77
2023/05/18 00:08:56;;;;;;;3.10;0.25;;;6.10;99.90;;;;;;5055333;28;20033;-77
2023/05/18 00:11:22;;;;;;;3.42;0.17;;;6.10;99.90;;;;;;5036984;28;20043;-76
2023/05/18 00:13:47;;;;;;;10.30;1.05;;;6.10;99.90;;;;;;5056188;28;20075;-77
2023/05/18 00:16:14;;;;;;;3.25;0.40;;;6.10;99.90;;;;;;5037541;28;20421;-77
2023/05/18 00:18:40;;;;;;;2.42;0.30;;;6.00;99.90;;;;;;5055329;28;20404;-77
2023/05/18 00:21:07;;;;;;;4.43;0.35;;;7.40;99.90;;;;;;5037216;28;20017;-77
2023/05/18 00:23:34;;;;;;;2.53;0.35;;;5.90;99.90;;;;;;5037438;28;20511;-77
2023/05/18 00:26:01;;;;;;;1.13;0.17;;;5.90;99.90;;;;;;5037738;28;20013;-77
2023/05/18 00:28:27;;;;;;;3.13;0.10;;;5.80;99.90;;;;;;5054988;28;20515;-77
2023/05/18 00:30:53;;;;;;;4.45;0.20;;;5.80;99.90;;;;;;5055058;28;20017;-76
2023/05/18 00:33:19;;;;;;;1.88;0.03;;;5.70;99.90;;;;;;5054696;28;20037;-77
2023/05/18 00:35:45;;;;;;;1.58;0.10;;;5.70;99.90;;;;;;5037033;28;20028;-77
2023/05/18 00:38:16;;;;;;;4.63;0.00;;;5.70;99.90;;;;;;5055069;28;20033;-77
2023/05/18 00:40:42;;;;;;;3.83;0.57;;;5.70;99.90;;;;;;5036996;28;20545;-77
2023/05/18 00:43:09;;;;;;;2.40;0.40;;;5.60;99.90;;;;;;5037186;28;20017;-77
2023/05/18 00:45:35;;;;;;;6.80;1.15;;;7.20;99.90;;;;;;5054974;28;20044;-77
2023/05/18 00:48:00;;;;;;;7.22;0.38;;;5.60;99.90;;;;;;5036665;28;20021;-77
2023/05/18 00:50:26;;;;;;;5.40;0.43;;;5.60;99.90;;;;;;5036812;28;20036;-77
2023/05/18 00:52:52;;;;;;;5.47;0.65;;;5.60;99.90;;;;;;5036774;28;20388;-77
2023/05/18 00:55:18;;;;;;;3.63;0.20;;;5.60;99.90;;;;;;5054594;28;20029;-77
2023/05/18 00:57:46;;;;;;;7.22;0.20;;;5.60;99.90;;;;;;5054503;28;20484;-77
2023/05/18 01:00:13;;;;;;;5.78;0.40;;;5.50;99.90;;;;;;5054607;28;20514;-76
2023/05/18 01:02:44;;;;;;;4.95;0.25;;;5.50;99.90;;;;;;5054475;28;20476;-76
2023/05/18 01:05:11;;;;;;;3.65;0.22;;;5.50;99.90;;;;;;5054368;28;20365;-77
2023/05/18 01:07:41;;;;;;;3.78;0.68;;;5.40;99.90;;;;;;5036509;28;20029;-77
2023/05/18 01:10:07;;;;;;;4.43;0.00;;;5.50;99.90;;;;;;5036720;28;20055;-77
2023/05/18 01:12:52;;;;;;;1.83;0.32;;;5.50;99.90;;;;;;5036531;28;20029;-77
2023/05/18 01:15:59;;;;;;;3.47;0.10;;;5.40;99.90;;;;;;5036373;28;20052;-77
2023/05/18 01:18:32;;;;;;;2.60;0.63;;;5.40;99.90;;;;;;4973197;28;20050;-77
2023/05/18 01:21:18;;;;;;;5.03;0.50;;;5.40;99.90;;;;;;4973402;28;20023;-76
2023/05/18 01:24:24;;;;;;;3.03;0.15;;;5.40;99.90;;;;;;5010531;28;20033;-76
2023/05/18 01:26:56;;;;;;;1.95;0.25;;;5.40;99.90;;;;;;5036208;28;20104;-77
2023/05/18 01:29:23;;;;;;;1.40;0.52;;;5.40;99.90;;;;;;5036228;28;20067;-77
2023/05/18 01:31:49;;;;;;;2.63;0.52;;;5.40;99.90;;;;;;5036191;28;20025;-77
2023/05/18 01:34:15;;;;;;;3.85;0.10;;;5.40;99.90;;;;;;5053937;28;20047;-77
2023/05/18 01:36:40;;;;;;;2.45;0.00;;;5.40;99.90;;;;;;5054511;28;20499;-77
2023/05/18 01:39:07;;;;;;;2.15;0.35;;;5.40;99.90;;;;;;5053680;28;20484;-77
2023/05/18 01:41:38;;;;;;;1.27;0.15;;;5.30;99.90;;;;;;5054248;28;20025;-77
2023/05/18 01:44:18;;;;;;;6.80;0.70;;;5.40;99.90;;;;;;5054100;28;20071;-77
2023/05/18 01:46:54;;;;;;;5.40;0.10;;;5.30;99.90;;;;;;5036366;28;20029;-77
2023/05/18 01:49:31;;;;;;;3.08;0.40;;;5.30;99.90;;;;;;5053803;28;20032;-77
2023/05/18 01:52:03;;;;;;;2.20;0.17;;;5.40;99.90;;;;;;5035791;28;20108;-77
2023/05/18 01:54:31;;;;;;;7.18;0.30;;;5.40;99.90;;;;;;5035927;28;20021;-77
2023/05/18 01:56:57;;;;;;;3.08;0.25;;;5.40;99.90;;;;;;5035877;28;20024;-77
2023/05/18 01:59:23;;;;;;;3.53;0.10;;;5.40;99.90;;;;;;5035666;28;20043;-77
2023/05/18 02:01:49;;;;;;;3.65;0.10;;;5.40;99.90;;;;;;5053568;28;20032;-77
2023/05/18 02:04:15;;;;;;;3.25;0.90;;;5.40;99.90;;;;;;5035719;28;20028;-77
2023/05/18 02:06:41;;;;;;;8.48;0.45;;;5.40;99.90;;;;;;5035867;28;20022;-77
2023/05/18 02:09:06;;;;;;;5.35;0.40;;;5.40;99.90;;;;;;5035385;28;20060;-77
2023/05/18 02:11:32;;;;;;;1.80;0.10;;;5.40;99.90;;;;;;5053980;28;20031;-77
2023/05/18 02:13:57;;;;;;;3.22;0.52;;;5.40;99.90;;;;;;5053369;28;20029;-77
2023/05/18 02:16:23;;;;;;;2.08;0.20;;;5.40;99.90;;;;;;5035397;28;20017;-77
2023/05/18 02:18:48;;;;;;;1.70;0.20;;;5.40;99.90;;;;;;5035631;28;20175;-77
2023/05/18 02:21:14;;;;;;;2.30;0.30;;;5.40;99.90;;;;;;5035609;28;20028;-77
2023/05/18 02:23:40;;;;;;;2.97;0.03;;;5.40;99.90;;;;;;5035326;28;20029;-77
2023/05/18 02:26:06;;;;;;;2.78;0.20;;;5.30;99.90;;;;;;5053230;28;20025;-77
2023/05/18 02:28:31;;;;;;;9.45;0.40;;;5.50;99.90;;;;;;5035511;28;20530;-77
2023/05/18 02:31:05;;;;;;;4.72;0.20;;;5.50;99.90;;;;;;5035842;28;20147;-77
2023/05/18 02:33:38;;;;;;;5.18;0.20;;;5.50;99.90;;;;;;5036822;28;20025;-77
2023/05/18 02:36:06;;;;;;;1.17;0.13;;;5.50;99.90;;;;;;5057594;28;20488;-77
2023/05/18 02:38:31;;;;;;;3.67;0.20;;;5.50;99.90;;;;;;5057200;28;20496;-77
2023/05/18 02:40:57;;;;;;;10.10;0.77;;;5.50;99.90;;;;;;5039159;28;20113;-77
2023/05/18 02:43:22;;;;;;;5.15;0.28;;;5.50;99.90;;;;;;5057554;28;20045;-77
2023/05/18 02:45:48;;;;;;;8.27;1.15;;;5.50;99.90;;;;;;5057055;28;20022;-77
2023/05/18 02:48:13;;;;;;;1.98;0.22;;;5.50;99.90;;;;;;5056987;28;20025;-77
2023/05/18 02:50:39;;;;;;;2.25;0.10;;;5.50;99.90;;;;;;5039204;28;20032;-77
2023/05/18 02:53:05;;;;;;;5.45;0.43;;;5.40;99.90;;;;;;5056638;28;20039;-76
2023/05/18 02:55:31;;;;;;;3.45;0.20;;;;;;;;;;5057315;28;20025;-77
2023/05/18 02:57:56;;;;;;;7.80;0.40;;;5.40;99.90;;;;;;5057000;28;20059;-77
2023/05/18 03:00:22;;;;;;;1.67;0.25;;;5.40;99.90;;;;;;5038690;28;20408;-76
2023/05/18 03:02:49;;;;;;;1.83;0.73;;;5.70;99.90;;;;;;5056647;28;20028;-77
2023/05/18 03:05:15;;;;;;;5.68;0.60;;;5.40;99.90;;;;;;5057206;28;20468;-77
2023/05/18 03:07:44;;;;;;;5.55;0.17;;;5.40;99.90;;;;;;5038743;28;20013;-77
2023/05/18 03:10:10;;;;;;;3.92;0.32;;;5.40;99.90;;;;;;5056674;28;20452;-77
2023/05/18 03:12:36;;;;;;;6.85;0.63;;;5.40;99.90;;;;;;5056335;28;20037;-77
2023/05/18 03:15:01;;;;;;;6.75;0.60;;;5.40;99.90;;;;;;5038318;28;20021;-77
2023/05/18 03:17:27;;;;;;;6.90;0.52;;;5.40;99.90;;;;;;5038431;28;20087;-77
2023/05/18 03:19:53;;;;;;;5.03;0.30;;;5.40;99.90;;;;;;5056370;28;20021;-76
2023/05/18 03:22:18;;;;;;;6.75;0.80;;;5.30;99.90;;;;;;5038726;28;20033;-77
2023/05/18 03:24:44;;;;;;;4.72;0.40;;;5.30;99.90;;;;;;5038273;28;20480;-77
2023/05/18 03:27:11;;;;;;;3.55;0.55;;;5.30;99.90;;;;;;5056609;28;20458;-77
2023/05/18 03:29:37;;;;;;;2.67;0.20;;;5.30;99.90;;;;;;5056035;28;20028;-77
2023/05/18 03:32:03;;;;;;;4.10;0.63;;;5.30;99.90;;;;;;5037891;28;20557;-77
2023/05/18 03:34:28;;;;;;;3.08;0.50;;;5.20;99.90;;;;;;5038279;28;20021;-77
2023/05/18 03:36:54;;;;;;;8.05;0.68;;;5.20;99.90;;;;;;5056125;28;20114;-77
2023/05/18 03:39:20;;;;;;;4.03;0.63;;;5.20;99.90;;;;;;5055578;28;20025;-77
2023/05/18 03:41:46;;;;;;;6.13;0.80;;;;;;;;;;5037855;28;20025;-77
2023/05/18 03:44:12;;;;;;;4.72;0.63;;;5.20;99.90;;;;;;5055534;28;20025;-77
2023/05/18 03:46:37;;;;;;;6.20;0.25;;;5.20;99.90;;;;;;5036941;28;20039;-77
2023/05/18 03:49:03;;;;;;;2.28;0.63;;;5.20;99.90;;;;;;5037935;28;20027;-77
2023/05/18 03:51:30;;;;;;;6.90;0.55;;;5.10;99.90;;;;;;5037806;28;20025;-77
2023/05/18 03:53:55;;;;;;;3.35;0.25;;;5.10;99.90;;;;;;5055684;28;20087;-77
2023/05/18 03:56:22;;;;;;;5.97;1.00;;;5.10;99.90;;;;;;5037769;28;20021;-77
2023/05/18 03:58:47;;;;;;;2.88;0.40;;;5.00;99.90;;;;;;5037408;28;20029;-77
2023/05/18 04:01:17;;;;;;;8.45;0.40;;;5.10;99.90;;;;;;5037800;28;20392;-77
2023/05/18 04:03:44;;;;;;;5.80;0.45;;;5.10;99.90;;;;;;5055565;28;20017;-77
2023/05/18 04:06:09;;;;;;;4.10;0.40;;;5.10;99.90;;;;;;5037461;28;20025;-77
2023/05/18 04:08:35;;;;;;;4.88;0.88;;;5.10;99.90;;;;;;5055675;28;20369;-77
2023/05/18 04:11:01;;;;;;;4.50;0.20;;;5.10;99.90;;;;;;5037515;28;20051;-77
2023/05/18 04:13:27;;;;;;;2.72;0.38;;;5.20;99.90;;;;;;5055201;28;20028;-77
2023/05/18 04:15:52;;;;;;;7.55;0.65;;;5.20;99.90;;;;;;5037303;28;20480;-77
2023/05/18 04:18:21;;;;;;;11.52;1.00;;;5.20;99.90;;;;;;5054782;28;20033;-77
2023/05/18 04:20:46;;;;;;;3.67;0.60;;;5.30;99.90;;;;;;5055096;28;20017;-77
2023/05/18 04:23:12;;;;;;;3.00;0.30;;;5.30;99.90;;;;;;5054788;28;20029;-77
2023/05/18 04:25:38;;;;;;;5.50;0.40;;;5.30;99.90;;;;;;5055056;28;20017;-77
2023/05/18 04:28:04;;;;;;;4.47;0.32;;;5.40;99.90;;;;;;5054893;28;20032;-77
2023/05/18 04:30:31;;;;;;;2.83;0.30;;;5.40;99.90;;;;;;5036943;28;20032;-77
2023/05/18 04:32:57;;;;;;;2.58;0.57;;;5.40;99.90;;;;;;5037240;28;20111;-77
2023/05/18 04:35:24;;;;;;;3.67;0.93;;;5.40;99.90;;;;;;5055364;28;20413;-76
2023/05/18 04:37:49;;;;;;;3.53;0.88;;;5.50;99.90;;;;;;5036878;28;20027;-77
2023/05/18 04:40:17;;;;;;;2.33;0.35;;;5.40;99.90;;;;;;5036857;28;20100;-77
2023/05/18 04:42:46;;;;;;;6.40;0.45;;;5.50;99.90;;;;;;5054769;28;20017;-77
2023/05/18 04:45:16;;;;;;;4.93;0.38;;;5.50;99.90;;;;;;5037085;28;20025;-77
2023/05/18 04:47:45;;;;;;;3.55;0.20;;;5.70;99.90;;;;;;5036680;28;20032;-76
2023/05/18 04:50:15;;;;;;;5.88;0.40;;;5.70;99.90;;;;;;5054586;28;20021;-77
2023/05/18 04:52:49;;;;;;;5.28;1.05;;;5.80;99.90;;;;;;5054703;28;20043;-77
2023/05/18 04:55:24;;;;;;;5.18;0.47;;;5.90;99.90;;;;;;5036458;28;20510;-77
2023/05/18 04:57:52;;;;;;;4.45;0.60;;;6.10;99.90;;;;;;5036643;28;20021;-77
2023/05/18 05:00:19;;;;;;;8.25;0.52;;;6.10;99.90;;;;;;5036562;28;20013;-77
2023/05/18 05:02:45;;;;;;;6.07;0.60;;;6.20;99.90;;;;;;5054234;28;20087;-77
2023/05/18 05:05:10;;;;;;;5.43;0.40;;;6.30;99.90;;;;;;5054122;28;20029;-77
2023/05/18 05:07:36;;;;;;;3.65;0.45;;;6.40;99.90;;;;;;5054047;28;20396;-76
2023/05/18 05:10:02;;;;;;;7.18;0.47;;;6.40;99.90;;;;;;5036322;28;20091;-77
2023/05/18 05:12:28;;;;;;;4.43;0.47;;;6.50;99.90;;;;;;5036198;28;20116;-77
2023/05/18 05:14:53;;;;;;;4.57;0.40;;;6.50;99.90;;;;;;5054010;28;20052;-77
2023/05/18 05:17:19;;;;;;;6.20;0.30;;;6.60;99.90;;;;;;5053660;28;20029;-77
2023/05/18 05:19:45;;;;;;;2.60;0.20;;;6.60;99.90;;;;;;5053896;28;20096;-77
2023/05/18 05:22:10;;;;;;;5.55;0.30;;;6.70;99.90;;;;;;5053959;28;20045;-77
2023/05/18 05:24:36;;;;;;;2.45;0.32;;;6.70;99.90;;;;;;5036040;28;20108;-77
2023/05/18 05:27:02;;;;;;;4.40;0.65;;;6.70;99.90;;;;;;5053936;28;20024;-77
2023/05/18 05:29:27;;;;;;;4.10;1.05;;;6.90;99.90;;;;;;5053621;28;20036;-77
2023/05/18 05:31:53;;;;;;;1.40;0.38;;;7.00;99.90;;;;;;5053704;28;20024;-77
2023/05/18 05:34:22;;;;;;;3.95;0.20;;;;;;;;;;5035733;28;20025;-77
2023/05/18 05:36:47;;;;;;;;;;;7.10;99.90;;;;;;5036181;28;20060;-77
2023/05/18 05:39:13;;;;;;;5.28;0.65;;;7.20;99.90;;;;;;5035596;28;19909;-77
2023/05/18 05:41:38;;;;;;;2.75;0.20;;;7.30;99.90;;;;;;5053446;28;20503;-77
2023/05/18 05:44:04;;;;;;;3.15;0.40;;;7.30;99.90;;;;;;5035782;28;20021;-77
2023/05/18 05:46:29;;;;;;;4.30;0.25;;;7.50;99.90;;;;;;5035885;28;20458;-76
2023/05/18 05:48:55;;;;;;;4.15;0.22;;;7.60;99.90;;;;;;5053232;28;20094;-76
2023/05/18 05:51:21;;;;;;;5.28;0.40;;;7.60;99.90;;;;;;5035554;28;20021;-76
2023/05/18 05:53:48;;;;;;;5.07;0.43;;;7.80;99.90;;;;;;5035572;28;20016;-76
2023/05/18 05:56:13;;;;;;;5.60;0.60;;;7.90;99.90;;;;;;5053474;28;20026;-76
2023/05/18 05:58:41;;;;;;;5.13;0.47;;;8.00;99.90;;;;;;5053287;28;20032;-76
2023/05/18 06:01:10;;;;;;;7.03;0.82;;;8.10;99.90;;;;;;5053414;28;20021;-75
2023/05/18 06:03:36;;;;;;;;;;;8.20;99.90;;;;;;5053705;28;20021;-76
2023/05/18 06:06:01;;;;;;;2.83;0.52;;;8.10;99.90;;;;;;5035396;28;19912;-76
2023/05/18 06:08:27;;;;;;;7.47;1.48;;;8.30;99.90;;;;;;5054584;28;20077;-75
2023/05/18 06:10:54;;;;;;;5.38;0.73;;;8.40;99.90;;;;;;5057524;28;20029;-75
2023/05/18 06:13:19;;;;;;;9.70;0.93;;;8.50;99.90;;;;;;5039676;28;20021;-76
2023/05/18 06:15:45;;;;;;;4.85;0.63;;;8.60;99.90;;;;;;5058161;28;20054;-76
2023/05/18 06:18:10;;;;;;;5.68;0.28;;;8.70;99.90;;;;;;5039596;28;20057;-75
2023/05/18 06:20:36;;;;;;;7.35;0.13;;;8.80;99.90;;;;;;5057867;28;20021;-76
2023/05/18 06:23:01;;;;;;;10.82;0.65;;;8.90;99.90;;;;;;5058041;28;20074;-75
2023/05/18 06:25:27;;;;;;;6.47;0.22;;;9.00;99.90;;;;;;5039491;28;20017;-75
2023/05/18 06:27:53;;;;;;;3.83;0.43;;;9.10;99.90;;;;;;5038997;28;20019;-75
2023/05/18 06:30:18;;;;;;;7.00;0.40;;;9.20;99.90;;;;;;5057019;28;20067;-75
2023/05/18 06:32:44;;;;;;;4.32;0.32;;;9.30;99.90;;;;;;5039147;28;20024;-75
2023/05/18 06:35:11;;;;;;;4.65;0.00;;;;;;;;;;5057099;28;20029;-76
2023/05/18 06:37:38;;;;;;;6.97;0.30;;;9.90;99.90;;;;;;5039115;28;20478;-75
2023/05/18 06:40:06;;;;;;;3.50;0.32;;;9.90;99.90;;;;;;5039149;28;20017;-75
2023/05/18 06:42:32;;;;;;;5.43;0.82;;;10.10;99.90;;;;;;5057031;28;20104;-76
2023/05/18 06:44:57;;;;;;;5.22;0.50;;;10.30;99.90;;;;;;5039400;28;20075;-75
2023/05/18 06:47:23;;;;;;;4.13;0.40;;;10.60;99.90;;;;;;5038963;28;20074;-75
2023/05/18 06:49:49;;;;;;;7.43;0.20;;;10.60;99.90;;;;;;5056866;28;20537;-75
2023/05/18 06:52:14;;;;;;;3.78;0.00;;;10.80;99.90;;;;;;5057076;28;20048;-75
2023/05/18 06:54:40;;;;;;;1.30;0.00;;;11.00;99.90;;;;;;5038905;28;20017;-75
2023/05/18 06:57:06;;;;;;;1.77;0.00;;;11.10;99.90;;;;;;5038805;28;20032;-74
2023/05/18 06:59:33;;;;;;;4.72;0.40;;;11.50;99.90;;;;;;5056287;28;20028;-75
2023/05/18 07:01:59;;;;;;;3.05;0.00;;;11.70;99.90;;;;;;5038654;28;20021;-75
2023/05/18 07:04:24;;;;;;;7.28;0.08;;;11.80;99.90;;;;;;5038522;28;20502;-75
2023/05/18 07:06:54;;;;;;;9.10;0.68;;;12.00;99.90;;;;;;5056180;28;20029;-76
2023/05/18 07:09:21;;;;;;;7.95;0.63;;;12.20;99.90;;;;;;5055999;28;20436;-76
2023/05/18 07:11:47;;;;;;;3.85;0.10;;;12.20;99.90;;;;;;5056059;28;20017;-76
2023/05/18 07:14:13;;;;;;;9.77;0.90;;;12.40;99.90;;;;;;5056202;28;20035;-76
2023/05/18 07:16:38;;;;;;;4.28;0.03;;;12.50;99.90;;;;;;5055804;28;20021;-76
2023/05/18 07:19:04;;;;;;;6.28;0.45;;;12.50;99.90;;;;;;5037567;28;20033;-76
2023/05/18 07:21:30;;;;;;;5.22;0.20;;;12.70;99.90;;;;;;5054921;28;20025;-75
2023/05/18 07:23:56;;;;;;;3.35;0.10;;;12.80;99.90;;;;;;5055823;28;20096;-75
2023/05/18 07:26:22;;;;;;;3.60;0.00;;;12.80;99.90;;;;;;5055731;28;20025;-76
2023/05/18 07:28:48;;;;;;;7.30;0.28;;;12.80;99.90;;;;;;5037659;28;20025;-76
2023/05/18 07:31:15;;;;;;;6.22;0.08;;;13.00;99.90;;;;;;5055750;28;20036;-75
2023/05/18 07:33:41;;;;;;;4.38;0.10;;;13.10;99.90;;;;;;5055567;28;20025;-76
2023/05/18 07:36:07;;;;;;;3.20;0.25;;;13.20;99.90;;;;;;5055569;28;20028;-76
2023/05/18 07:38:32;;;;;;;6.13;0.22;;;13.30;99.90;;;;;;5037477;28;20025;-76
2023/05/18 07:40:59;;;;;;;1.55;0.10;;;13.60;99.90;;;;;;5055549;28;20036;-76
2023/05/18 07:43:24;;;;;;;3.70;0.25;;;13.80;98.90;;;;;;5055484;28;20067;-76
2023/05/18 07:45:50;;;;;;;3.38;0.43;;;13.80;99.20;;;;;;5055643;28;20029;-78
2023/05/18 07:48:16;;;;;;;8.13;1.08;;;13.50;97.50;;;;;;5055814;28;20024;-78
2023/05/18 07:50:42;;;;;;;1.67;0.00;;;13.30;98.00;;;;;;5055814;28;20430;-78
2023/05/18 07:53:07;;;;;;;2.65;0.13;;;13.30;98.60;;;;;;5055899;28;20017;-78
2023/05/18 07:55:33;;;;;;;6.90;0.77;;;13.20;98.20;;;;;;5056109;28;20428;-77
2023/05/18 07:57:59;;;;;;;4.03;0.10;;;13.10;98.60;;;;;;5055602;28;20100;-77
2023/05/18 08:00:25;;;;;;;3.55;0.03;;;13.00;98.40;;;;;;5037808;28;20031;-77
2023/05/18 08:02:51;;;;;;;4.28;0.28;;;12.90;98.90;;;;;;5037778;28;20451;-77
2023/05/18 08:05:17;;;;;;;4.78;0.10;;;12.90;98.70;;;;;;5037782;28;20036;-77
2023/05/18 08:07:43;;;;;;;8.07;0.13;;;12.80;98.50;;;;;;5055795;28;20056;-79
2023/05/18 08:10:09;;;;;;;4.63;0.10;;;12.70;98.90;;;;;;5054804;28;20537;-74
2023/05/18 08:12:35;;;;;;;4.78;0.45;;;12.70;99.90;;;;;;5054886;28;20021;-74
2023/05/18 08:15:00;;;;;;;5.97;0.20;;;12.70;99.90;;;;;;5036929;28;20491;-74
2023/05/18 08:17:26;;;;;;;6.40;0.10;;;12.70;99.50;;;;;;5054984;28;20091;-77
2023/05/18 08:19:52;;;;;;;6.00;0.38;;;12.80;99.90;;;;;;5036836;28;20025;-77
2023/05/18 08:22:18;;;;;;;3.75;0.35;;;12.90;99.80;;;;;;5036824;28;20049;-74
2023/05/18 08:24:44;;;;;;;8.00;0.10;;;13.00;99.40;;;;;;5054687;28;20095;-75
2023/05/18 08:27:10;;;;;;;5.75;0.68;;;13.00;99.80;;;;;;5054573;28;20028;-74
2023/05/18 08:29:36;;;;;;;3.35;0.10;;;13.10;99.20;;;;;;5036676;28;20079;-74
2023/05/18 08:32:03;;;;;;;3.10;0.40;;;13.10;99.60;;;;;;5054181;28;20021;-74
2023/05/18 08:34:29;;;;;;;4.75;0.35;;;13.10;99.00;;;;;;5054384;28;20070;-74
2023/05/18 08:36:55;;;;;;;3.55;0.30;;;13.10;99.10;;;;;;5036641;28;20419;-77
2023/05/18 08:39:21;;;;;;;3.83;0.00;;;13.10;98.50;;;;;;5054399;28;20492;-74
2023/05/18 08:41:57;;;;;;;2.40;0.43;;;13.30;98.50;;;;;;5054403;28;20017;-77
2023/05/18 08:44:28;;;;;;;3.00;0.68;;;13.40;98.60;;;;;;5054994;28;20017;-77
2023/05/18 08:46:55;;;;;;;4.35;0.20;;;13.70;98.40;;;;;;5036495;28;20439;-76
2023/05/18 08:49:20;;;;;;;3.72;0.00;;;13.70;98.60;;;;;;5036521;28;20044;-76
2023/05/18 08:51:53;;;;;;;1.35;0.10;;;14.00;98.40;;;;;;5054525;28;20056;-77
2023/05/18 08:54:20;;;;;;;3.42;0.63;;;14.30;97.50;;;;;;5054735;28;20025;-77
2023/05/18 08:56:47;;;;;;;6.13;0.20;;;14.00;96.50;;;;;;5054077;28;20029;-74
2023/05/18 08:59:22;;;;;;;7.00;0.00;;;14.00;97.10;;;;;;5053873;28;20070;-74
2023/05/18 09:01:48;;;;;;;6.90;0.43;;;14.20;96.80;;;;;;5036096;28;20448;-74
2023/05/18 09:04:15;;;;;;;2.30;0.90;;;14.40;96.40;;;;;;5053979;28;20075;-75
2023/05/18 09:06:41;;;;;;;4.70;0.10;;;14.60;94.60;;;;;;5053929;28;20071;-74
2023/05/18 09:09:09;;;;;;;1.15;0.10;;;14.50;94.10;;;;;;5053923;28;20043;-74
2023/05/18 09:11:35;;;;;;;5.15;0.20;;;14.70;93.50;;;;;;5053797;28;20029;-75
2023/05/18 09:14:01;;;;;;;2.33;0.05;;;14.90;93.40;;;;;;5054223;28;20027;-75
2023/05/18 09:16:27;;;;;;;1.65;0.10;;;15.00;92.60;;;;;;5053277;28;20021;-74
2023/05/18 09:18:53;;;;;;;1.40;0.00;;;15.10;91.00;;;;;;5053546;28;20021;-74
2023/05/18 09:21:19;;;;;;;10.63;0.40;;;15.00;91.60;;;;;;5053652;28;20021;-74
2023/05/18 09:23:46;;;;;;;7.40;0.57;;;14.80;92.70;;;;;;5054140;28;20017;-74
2023/05/18 09:26:12;;;;;;;2.33;0.10;;;14.80;92.60;;;;;;5035595;28;20430;-75
2023/05/18 09:28:42;;;;;;;3.50;0.13;;;14.80;90.50;;;;;;5035417;28;20025;-74
2023/05/18 09:31:16;;;;;;;3.80;0.95;;;14.80;91.30;;;;;;5053324;28;20033;-74
2023/05/18 09:33:43;;;;;;;3.28;0.10;;;14.90;92.30;;;;;;5035625;28;20044;-74
2023/05/18 09:36:11;;;;;;;8.82;0.45;;;15.30;91.50;;;;;;5035504;28;20104;-74
2023/05/18 09:38:45;;;;;;;4.07;0.40;;;15.50;90.20;;;;;;5053276;28;20025;-74
2023/05/18 09:41:13;;;;;;;3.47;0.20;;;15.60;90.20;;;;;;5053301;28;20112;-74
2023/05/18 09:43:39;;;;;;;3.70;0.00;;;15.80;90.60;;;;;;5052544;28;20480;-74
2023/05/18 09:46:09;;;;;;;1.95;0.00;;;15.90;90.20;;;;;;5053871;28;20024;-74
2023/05/18 09:48:55;;;;;;;1.80;0.10;;;16.30;86.80;;;;;;5053229;28;20047;-74
2023/05/18 09:51:23;;;;;;;2.15;0.00;;;16.40;86.80;;;;;;5053832;28;20115;-74
2023/05/18 09:53:54;;;;;;;1.70;0.00;;;16.30;87.10;;;;;;5053205;28;20056;-74
2023/05/18 09:56:22;;;;;;;7.30;0.15;;;16.30;86.30;;;;;;5053202;28;20037;-77
2023/05/18 09:58:48;;;;;;;1.33;0.00;;;16.40;84.90;;;;;;5035240;28;20060;-76
2023/05/18 10:01:14;;;;;;;3.22;0.43;;;16.60;85.90;;;;;;5053588;28;20025;-76
2023/05/18 10:03:40;;;;;;;6.28;0.00;;;16.80;88.50;;;;;;5053099;28;20071;-77
2023/05/18 10:06:12;;;;;;;5.10;0.30;;;16.30;86.40;;;;;;5053072;28;20021;-76
2023/05/18 10:08:38;;;;;;;2.22;0.35;;;15.60;83.50;;;;;;5052888;28;20116;-76
2023/05/18 10:11:04;;;;;;;4.85;0.32;;;15.60;84.40;;;;;;5053076;28;20036;-77
2023/05/18 10:13:31;;;;;;;7.32;0.10;;;15.60;87.90;;;;;;5052904;28;20392;-77
2023/05/18 10:16:00;;;;;;;3.28;0.25;;;16.60;87.60;;;;;;5035107;28;20498;-75
2023/05/18 10:18:30;;;;;;;2.97;0.20;;;15.80;86.30;;;;;;5052775;28;20403;-75
2023/05/18 10:20:58;;;;;;;3.88;0.00;;;15.90;86.50;;;;;;5035194;28;20024;-75
2023/05/18 10:23:25;;;;;;;4.10;0.00;;;16.00;85.70;;;;;;5053742;28;20041;-75
2023/05/18 10:25:51;;;;;;;1.55;0.03;;;16.10;83.80;;;;;;5052967;28;20028;-75
2023/05/18 10:28:24;;;;;;;1.65;0.00;;;16.10;82.70;;;;;;5034963;28;20025;-75
2023/05/18 10:30:52;;;;;;;5.97;1.00;;;16.00;83.70;;;;;;5035093;28;20021;-75
2023/05/18 10:33:19;;;;;;;3.45;0.00;;;16.20;86.80;;;;;;5034931;28;20136;-75
2023/05/18 10:35:48;;;;;;;6.00;0.08;;;15.90;87.20;;;;;;5052751;28;20074;-75
2023/05/18 10:38:19;;;;;;;6.78;0.30;;;16.20;84.80;;;;;;5053209;28;20021;-75
2023/05/18 10:40:47;;;;;;;0.88;0.13;;;16.20;82.60;;;;;;5052722;28;20435;-75
2023/05/18 10:43:15;;;;;;;10.47;0.63;;;16.10;82.70;;;;;;5052670;28;20021;-75
2023/05/18 10:45:42;;;;;;;3.90;0.20;;;16.30;84.20;;;;;;5034723;28;20060;-75
2023/05/18 10:48:09;;;;;;;8.15;0.17;;;16.50;83.30;;;;;;5052563;28;20488;-75
2023/05/18 10:50:38;;;;;;;4.60;0.50;;;16.50;83.70;;;;;;5034923;28;20031;-75
2023/05/18 10:53:05;;;;;;;6.63;0.88;;;16.80;84.80;;;;;;5052588;28;20079;-75
2023/05/18 10:55:31;;;;;;;3.20;0.17;;;17.00;83.30;;;;;;5055486;28;20434;-75
2023/05/18 10:58:02;;;;;;;3.63;0.08;;;17.20;81.00;;;;;;5056230;28;20032;-75
2023/05/18 11:00:33;;;;;;;6.38;0.40;;;17.30;81.80;;;;;;5056426;28;20025;-74
2023/05/18 11:03:00;;;;;;;3.70;0.10;;;17.20;80.70;;;;;;5038329;28;20017;-74
2023/05/18 11:05:26;;;;;;;3.72;0.20;;;17.30;78.10;;;;;;5056097;28;20024;-74
2023/05/18 11:08:04;;;;;;;5.00;0.25;;;17.00;80.70;;;;;;5056465;28;20024;-76
2023/05/18 11:10:47;;;;;;;5.03;0.15;;;17.20;80.70;;;;;;5056123;28;20092;-77
2023/05/18 11:13:14;;;;;;;1.83;0.35;;;17.20;79.50;;;;;;5056063;28;20049;-77
2023/05/18 11:15:51;;;;;;;5.95;0.32;;;17.40;78.70;;;;;;5055968;28;20021;-76
2023/05/18 11:18:17;;;;;;;4.37;0.50;;;17.50;82.50;;;;;;5055931;28;20436;-77
2023/05/18 11:20:45;;;;;;;2.60;0.10;;;17.50;79.90;;;;;;5038104;28;20056;-76
2023/05/18 11:23:13;;;;;;;3.05;0.22;;;17.70;76.80;;;;;;5055819;28;20017;-76
2023/05/18 11:25:41;;;;;;;3.53;0.13;;;17.80;80.30;;;;;;5055876;28;20498;-77
2023/05/18 11:28:09;;;;;;;7.68;0.10;;;17.50;78.50;;;;;;5055726;28;20021;-77
2023/05/18 11:30:35;;;;;;;3.20;0.10;;;17.50;78.20;;;;;;5055677;28;20025;-76
2023/05/18 11:33:07;;;;;;;1.98;0.25;;;17.30;78.00;;;;;;5055598;28;20370;-76
2023/05/18 11:35:38;;;;;;;3.25;0.20;;;;;;;;;;5055569;28;20074;-76
2023/05/18 11:38:07;;;;;;;4.47;0.25;;;17.90;79.30;;;;;;5037596;28;20473;-74
2023/05/18 11:40:46;;;;;;;4.18;0.60;;;18.00;75.40;;;;;;5037696;28;20013;-76
2023/05/18 11:43:25;;;;;;;3.13;0.05;;;18.30;77.90;;;;;;5055454;28;20054;-76
2023/05/18 11:45:57;;;;;;;2.78;0.20;;;18.30;74.40;;;;;;5055379;28;20057;-77
2023/05/18 11:48:25;;;;;;;2.10;0.20;;;18.10;73.70;;;;;;5037453;28;20457;-77
2023/05/18 11:50:54;;;;;;;4.90;0.22;;;18.00;75.50;;;;;;5055214;28;20437;-77
2023/05/18 11:53:25;;;;;;;6.38;0.38;;;18.00;76.00;;;;;;5055325;28;20476;-76
2023/05/18 11:55:55;;;;;;;4.03;0.45;;;18.40;74.30;;;;;;5055086;28;20029;-77
2023/05/18 11:58:23;;;;;;;5.18;0.38;;;18.50;73.40;;;;;;5054983;28;20120;-77
2023/05/18 12:00:50;;;;;;;2.25;0.10;;;18.70;73.40;;;;;;5055082;28;20028;-77
2023/05/18 12:03:16;;;;;;;1.48;0.10;;;18.70;73.70;;;;;;5055069;28;20021;-77
2023/05/18 12:05:48;;;;;;;1.10;0.20;;;18.80;71.80;;;;;;5053466;28;20024;-77
2023/05/18 12:08:17;;;;;;;1.38;0.10;;;18.70;73.90;;;;;;5054706;28;20400;-76
2023/05/18 12:10:48;;;;;;;4.75;0.20;;;18.80;75.00;;;;;;5052919;28;20567;-76
2023/05/18 12:13:16;;;;;;;6.13;0.10;;;18.10;71.90;;;;;;5054560;28;20025;-77
2023/05/18 12:15:43;;;;;;;6.75;0.08;;;18.30;72.70;;;;;;5054885;28;20021;-76
2023/05/18 12:18:09;;;;;;;3.13;0.47;;;17.80;71.30;;;;;;5054584;28;20029;-77
2023/05/18 12:20:38;;;;;;;4.65;0.10;;;17.70;71.80;;;;;;5055326;28;20073;-76
2023/05/18 12:23:06;;;;;;;1.48;0.10;;;17.60;73.60;;;;;;5036842;28;20032;-77
2023/05/18 12:25:32;;;;;;;6.30;0.55;;;17.60;74.50;;;;;;5054724;28;20079;-76
2023/05/18 12:27:58;;;;;;;6.07;0.40;;;18.50;72.50;;;;;;5054579;28;20044;-76
2023/05/18 12:30:33;;;;;;;7.30;0.30;;;18.60;75.20;;;;;;5036732;28;20480;-77
2023/05/18 12:33:01;;;;;;;2.95;0.30;;;18.90;72.70;;;;;;5054639;28;20021;-76
2023/05/18 12:35:28;;;;;;;5.83;0.73;;;19.00;72.70;;;;;;5036584;28;20030;-77
2023/05/18 12:37:54;;;;;;;4.68;0.20;;;19.30;73.10;;;;;;5054304;28;20044;-77
2023/05/18 12:40:21;;;;;;;2.40;0.30;;;19.60;73.00;;;;;;5054403;28;20397;-77
2023/05/18 12:42:53;;;;;;;2.83;0.25;;;19.70;75.10;;;;;;5054412;28;20046;-77
2023/05/18 12:45:22;;;;;;;6.43;0.25;;;20.00;69.00;;;;;;5036470;28;20025;-75
2023/05/18 12:47:52;;;;;;;2.88;0.20;;;20.10;67.30;;;;;;5036239;28;20029;-75
2023/05/18 12:50:19;;;;;;;2.17;0.47;;;20.10;66.90;;;;;;5054199;28;20050;-75
2023/05/18 12:52:44;;;;;;;2.90;0.25;;;20.50;70.80;;;;;;5054168;28;20029;-75
2023/05/18 12:55:21;;;;;;;1.17;0.10;;;20.60;66.60;;;;;;5054430;28;20013;-75